createdAt,value
2019-03-24T00:02:07.366Z,9.70
2019-03-24T00:04:38.495Z,9.76
2019-03-24T00:07:09.754Z,9.57
2019-03-24T00:09:40.876Z,9.42
2019-03-24T00:12:12.606Z,9.48
2019-03-24T00:14:43.762Z,9.33
2019-03-24T00:17:15.024Z,9.54
2019-03-24T00:19:46.237Z,9.51
2019-03-24T00:22:17.390Z,9.50
2019-03-24T00:24:48.643Z,9.38
2019-03-24T00:27:24.711Z,9.47
2019-03-24T00:29:56.973Z,9.49
2019-03-24T00:32:31.345Z,9.47
2019-03-24T00:35:02.640Z,9.31
2019-03-24T00:37:38.438Z,9.48
2019-03-24T00:40:09.951Z,9.45
2019-03-24T00:42:41.209Z,9.35
2019-03-24T00:45:14.034Z,9.36
2019-03-24T00:47:45.365Z,9.40
2019-03-24T00:50:16.603Z,9.39
2019-03-24T00:52:57.317Z,9.26
2019-03-24T00:55:28.484Z,9.27
2019-03-24T00:57:59.781Z,9.15
2019-03-24T01:00:44.778Z,9.17
2019-03-24T01:03:16.170Z,9.31
2019-03-24T01:05:50.172Z,9.27
2019-03-24T01:08:21.363Z,9.30
2019-03-24T01:10:52.641Z,9.20
2019-03-24T01:13:23.874Z,9.19
2019-03-24T01:15:55.137Z,9.15
2019-03-24T01:18:26.240Z,9.07
2019-03-24T01:20:57.464Z,9.05
2019-03-24T01:23:28.709Z,9.05
2019-03-24T01:26:00.059Z,9.04
2019-03-24T01:28:37.791Z,9.08
2019-03-24T01:31:09.031Z,9.03
2019-03-24T01:33:40.253Z,9.11
2019-03-24T01:36:11.401Z,9.06
2019-03-24T01:38:42.513Z,8.84
2019-03-24T01:41:13.735Z,8.89
2019-03-24T01:43:44.948Z,8.87
2019-03-24T01:46:16.191Z,8.85
2019-03-24T01:48:54.474Z,8.93
2019-03-24T01:51:35.291Z,9.07
2019-03-24T01:54:06.499Z,8.79
2019-03-24T01:56:37.641Z,8.91
2019-03-24T01:59:20.988Z,8.89
2019-03-24T02:02:06.509Z,8.78
2019-03-24T02:04:37.630Z,8.61
2019-03-24T02:07:08.804Z,8.56
2019-03-24T02:09:40.057Z,8.51
2019-03-24T02:12:11.321Z,8.62
2019-03-24T02:14:43.064Z,8.46
2019-03-24T02:17:14.195Z,8.54
2019-03-24T02:19:45.328Z,8.60
2019-03-24T02:22:20.673Z,8.59
2019-03-24T02:24:51.971Z,8.57
2019-03-24T02:27:33.416Z,8.56
2019-03-24T02:30:06.963Z,8.56
2019-03-24T02:32:38.219Z,8.71
2019-03-24T02:35:15.625Z,8.61
2019-03-24T02:37:56.838Z,8.53
2019-03-24T02:40:28.110Z,8.62
2019-03-24T02:42:59.243Z,8.49
2019-03-24T02:45:30.475Z,8.48
2019-03-24T02:48:01.534Z,8.27
2019-03-24T02:50:32.804Z,8.33
2019-03-24T02:53:25.669Z,8.15
2019-03-24T02:56:14.630Z,8.32
2019-03-24T02:58:46.925Z,8.31
2019-03-24T03:01:18.103Z,8.54
2019-03-24T03:03:49.257Z,8.59
2019-03-24T03:06:20.466Z,8.61
2019-03-24T03:08:51.698Z,8.60
2019-03-24T03:11:22.982Z,8.65
2019-03-24T03:13:54.136Z,8.67
2019-03-24T03:16:37.848Z,8.55
2019-03-24T03:18:58.153Z,8.43
2019-03-24T03:21:34.356Z,8.43
2019-03-24T03:24:05.479Z,8.33
2019-03-24T03:26:36.631Z,8.37
2019-03-24T03:29:08.981Z,8.35
2019-03-24T03:31:45.420Z,8.44
2019-03-24T03:34:16.701Z,8.27
2019-03-24T03:37:01.644Z,8.34
2019-03-24T03:39:32.921Z,8.19
2019-03-24T03:42:04.175Z,8.00
2019-03-24T03:44:35.298Z,8.12
2019-03-24T03:47:06.567Z,8.24
2019-03-24T03:49:41.899Z,8.19
2019-03-24T03:52:13.082Z,8.22
2019-03-24T03:54:44.362Z,8.17
2019-03-24T03:57:15.560Z,8.16
2019-03-24T03:59:46.705Z,8.15
2019-03-24T04:02:20.005Z,8.11
2019-03-24T04:04:59.069Z,8.21
2019-03-24T04:07:30.355Z,8.00
2019-03-24T04:10:01.624Z,8.15
2019-03-24T04:12:39.349Z,8.07
2019-03-24T04:15:10.640Z,8.09
2019-03-24T04:17:41.921Z,8.02
2019-03-24T04:20:15.140Z,8.14
2019-03-24T04:22:46.363Z,8.20
2019-03-24T04:25:17.501Z,8.11
2019-03-24T04:27:53.371Z,8.01
2019-03-24T04:30:25.660Z,7.94
2019-03-24T04:32:56.961Z,7.86
2019-03-24T04:35:28.278Z,8.00
2019-03-24T04:38:00.631Z,8.00
2019-03-24T04:41:07.980Z,7.92
2019-03-24T04:43:54.032Z,7.90
2019-03-24T04:46:25.173Z,7.88
2019-03-24T04:48:56.304Z,7.88
2019-03-24T04:51:27.426Z,7.78
2019-03-24T04:53:58.569Z,7.89
2019-03-24T04:56:33.157Z,7.83
2019-03-24T04:59:04.488Z,7.81
2019-03-24T05:01:35.679Z,7.87
2019-03-24T05:04:06.804Z,7.66
2019-03-24T05:06:39.273Z,7.81
2019-03-24T05:09:26.472Z,7.69
2019-03-24T05:11:58.818Z,7.65
2019-03-24T05:14:48.217Z,7.56
2019-03-24T05:17:26.665Z,7.59
2019-03-24T05:19:52.246Z,7.76
2019-03-24T05:22:23.530Z,7.70
2019-03-24T05:25:03.729Z,7.71
2019-03-24T05:27:35.031Z,7.71
2019-03-24T05:30:16.651Z,7.67
2019-03-24T05:32:47.862Z,7.66
2019-03-24T05:35:23.005Z,7.56
2019-03-24T05:37:55.348Z,7.53
2019-03-24T05:40:38.915Z,7.42
2019-03-24T05:43:15.651Z,7.50
2019-03-24T05:46:13.655Z,7.47
2019-03-24T05:48:44.825Z,7.53
2019-03-24T05:51:16.022Z,7.41
2019-03-24T05:53:49.320Z,7.52
2019-03-24T05:56:21.575Z,7.41
2019-03-24T05:58:52.702Z,7.45
2019-03-24T06:01:23.862Z,7.45
2019-03-24T06:03:56.369Z,7.36
2019-03-24T06:06:34.565Z,7.30
2019-03-24T06:09:11.477Z,7.36
2019-03-24T06:11:49.531Z,7.23
2019-03-24T06:14:30.572Z,7.34
2019-03-24T06:17:02.939Z,7.28
2019-03-24T06:19:34.804Z,7.22
2019-03-24T06:22:08.357Z,7.18
2019-03-24T06:24:44.204Z,6.89
2019-03-24T06:27:32.620Z,7.08
2019-03-24T06:30:04.432Z,7.20
2019-03-24T06:32:41.718Z,7.14
2019-03-24T06:35:23.920Z,7.13
2019-03-24T06:37:56.280Z,7.20
2019-03-24T06:40:31.506Z,7.13
2019-03-24T06:43:04.411Z,7.24
2019-03-24T06:45:39.292Z,7.45
2019-03-24T06:48:19.483Z,7.79
2019-03-24T06:51:02.764Z,8.13
2019-03-24T06:53:34.091Z,8.23
2019-03-24T06:56:10.844Z,8.42
2019-03-24T06:58:49.014Z,8.43
2019-03-24T07:01:20.516Z,8.67
2019-03-24T07:03:53.006Z,8.90
2019-03-24T07:06:34.846Z,9.16
2019-03-24T07:09:24.270Z,9.38
2019-03-24T07:12:00.067Z,9.60
2019-03-24T07:14:30.764Z,9.99
2019-03-24T07:17:02.255Z,9.81
2019-03-24T07:19:33.952Z,9.90
2019-03-24T07:22:11.163Z,9.73
2019-03-24T07:24:48.514Z,9.56
2019-03-24T07:27:22.888Z,10.03
2019-03-24T07:29:54.221Z,9.39
2019-03-24T07:32:25.447Z,9.80
2019-03-24T07:35:02.817Z,10.04
2019-03-24T07:37:35.185Z,10.00
2019-03-24T07:40:28.003Z,9.94
2019-03-24T07:42:59.266Z,9.95
2019-03-24T07:45:34.504Z,9.94
2019-03-24T07:48:18.632Z,10.37
2019-03-24T07:50:43.863Z,10.63
2019-03-24T07:53:15.082Z,10.57
2019-03-24T07:55:49.273Z,10.57
2019-03-24T07:58:25.228Z,10.53
2019-03-24T08:00:57.525Z,10.23
2019-03-24T08:03:28.832Z,10.42
2019-03-24T08:06:09.233Z,10.81
2019-03-24T08:08:57.751Z,10.98
2019-03-24T08:11:35.744Z,11.23
2019-03-24T08:14:10.296Z,11.33
2019-03-24T08:16:41.655Z,11.37
2019-03-24T08:19:12.880Z,11.30
2019-03-24T08:21:45.075Z,11.53
2019-03-24T08:24:23.621Z,11.70
2019-03-24T08:26:56.937Z,11.76
2019-03-24T08:29:31.491Z,11.73
2019-03-24T08:32:03.801Z,11.65
2019-03-24T08:34:35.187Z,11.64
2019-03-24T08:37:07.552Z,11.24
2019-03-24T08:39:42.620Z,11.23
2019-03-24T08:42:14.920Z,10.99
2019-03-24T08:44:46.130Z,10.87
2019-03-24T08:47:19.525Z,10.75
2019-03-24T08:49:50.907Z,11.18
2019-03-24T08:52:22.328Z,11.47
2019-03-24T08:54:53.532Z,11.73
2019-03-24T08:57:25.006Z,11.80
2019-03-24T08:59:56.268Z,11.96
2019-03-24T09:02:28.480Z,12.02
2019-03-24T09:05:13.785Z,12.20
2019-03-24T09:07:45.166Z,12.22
2019-03-24T09:10:17.460Z,12.47
2019-03-24T09:12:50.786Z,12.57
2019-03-24T09:15:37.301Z,12.53
2019-03-24T09:18:10.711Z,12.29
2019-03-24T09:20:43.043Z,12.38
2019-03-24T09:23:26.525Z,12.38
2019-03-24T09:26:03.282Z,12.51
2019-03-24T09:28:36.837Z,12.82
2019-03-24T09:31:08.205Z,12.79
2019-03-24T09:33:40.452Z,12.56
2019-03-24T09:36:16.938Z,12.61
2019-03-24T09:38:48.158Z,12.62
2019-03-24T09:41:19.479Z,12.69
2019-03-24T09:43:51.754Z,12.45
2019-03-24T09:46:25.054Z,12.56
2019-03-24T09:49:03.008Z,12.76
2019-03-24T09:51:30.352Z,13.13
2019-03-24T09:54:13.039Z,13.31
2019-03-24T09:56:44.367Z,13.50
2019-03-24T09:59:22.961Z,13.60
2019-03-24T10:02:15.012Z,13.76
2019-03-24T10:04:52.084Z,13.29
2019-03-24T10:07:25.360Z,13.05
2019-03-24T10:09:57.771Z,13.07
2019-03-24T10:12:31.047Z,13.32
2019-03-24T10:15:02.391Z,13.43
2019-03-24T10:17:52.586Z,13.56
2019-03-24T10:20:30.546Z,13.50
2019-03-24T10:23:07.188Z,13.11
2019-03-24T10:25:43.277Z,13.12
2019-03-24T10:28:15.759Z,13.34
2019-03-24T10:30:46.997Z,13.47
2019-03-24T10:33:19.441Z,13.51
2019-03-24T10:35:52.706Z,13.46
2019-03-24T10:38:25.993Z,13.49
2019-03-24T10:40:57.214Z,13.49
2019-03-24T10:43:36.752Z,13.34
2019-03-24T10:46:08.258Z,13.60
2019-03-24T10:48:40.627Z,13.47
2019-03-24T10:51:12.679Z,13.43
2019-03-24T10:53:45.709Z,13.58
2019-03-24T10:56:18.832Z,13.63
2019-03-24T10:58:50.320Z,13.61
2019-03-24T11:01:22.516Z,13.78
2019-03-24T11:03:53.881Z,13.90
2019-03-24T11:06:25.187Z,13.90
2019-03-24T11:08:59.849Z,13.98
2019-03-24T11:11:33.038Z,14.00
2019-03-24T11:14:04.351Z,13.73
2019-03-24T11:16:40.474Z,14.06
2019-03-24T11:19:11.729Z,14.11
2019-03-24T11:21:44.707Z,14.15
2019-03-24T11:24:22.505Z,14.23
2019-03-24T11:26:55.680Z,13.95
2019-03-24T11:29:33.349Z,13.79
2019-03-24T11:32:05.684Z,13.80
2019-03-24T11:34:37.029Z,13.68
2019-03-24T11:37:08.289Z,13.90
2019-03-24T11:39:40.484Z,13.85
2019-03-24T11:42:16.179Z,13.90
2019-03-24T11:44:47.570Z,13.98
2019-03-24T11:47:26.772Z,13.75
2019-03-24T11:49:56.283Z,13.82
2019-03-24T11:52:28.555Z,13.98
2019-03-24T11:55:01.051Z,13.87
2019-03-24T11:57:32.293Z,13.56
2019-03-24T12:00:09.765Z,13.66
2019-03-24T12:02:48.615Z,13.41
2019-03-24T12:05:26.932Z,13.41
2019-03-24T12:08:04.411Z,13.20
2019-03-24T12:10:50.868Z,13.33
2019-03-24T12:13:23.110Z,13.44
2019-03-24T12:15:58.016Z,13.39
2019-03-24T12:18:29.559Z,13.32
2019-03-24T12:21:02.139Z,13.44
2019-03-24T12:23:33.628Z,13.68
2019-03-24T12:26:05.742Z,13.61
2019-03-24T12:28:37.084Z,13.21
2019-03-24T12:31:08.342Z,13.29
2019-03-24T12:33:41.009Z,13.44
2019-03-24T12:36:13.476Z,13.49
2019-03-24T12:38:45.803Z,13.47
2019-03-24T12:41:23.334Z,12.91
2019-03-24T12:43:54.598Z,13.07
2019-03-24T12:46:25.861Z,13.03
2019-03-24T12:49:06.148Z,13.07
2019-03-24T12:51:47.073Z,13.02
2019-03-24T12:54:22.486Z,13.06
2019-03-24T12:56:53.757Z,13.10
2019-03-24T12:59:25.157Z,13.19
2019-03-24T13:02:05.797Z,12.69
2019-03-24T13:04:41.358Z,12.61
2019-03-24T13:07:14.897Z,12.34
2019-03-24T13:09:46.127Z,12.23
2019-03-24T13:12:19.491Z,12.45
2019-03-24T13:14:52.579Z,12.39
2019-03-24T13:17:24.041Z,12.48
2019-03-24T13:19:57.390Z,12.52
2019-03-24T13:22:33.630Z,12.64
2019-03-24T13:25:05.437Z,12.52
2019-03-24T13:27:40.257Z,12.43
2019-03-24T13:30:11.650Z,12.60
2019-03-24T13:32:45.043Z,12.53
2019-03-24T13:35:19.207Z,12.25
2019-03-24T13:37:51.025Z,12.37
2019-03-24T13:40:25.132Z,12.42
2019-03-24T13:43:02.011Z,12.33
2019-03-24T13:45:33.372Z,12.23
2019-03-24T13:48:04.695Z,12.08
2019-03-24T13:50:43.289Z,12.07
2019-03-24T13:53:14.499Z,12.19
2019-03-24T13:55:47.142Z,12.23
2019-03-24T13:58:19.568Z,12.25
2019-03-24T14:00:52.748Z,12.33
2019-03-24T14:03:24.186Z,12.30
2019-03-24T14:06:04.219Z,12.28
2019-03-24T14:08:35.496Z,12.43
2019-03-24T14:11:17.862Z,12.50
2019-03-24T14:13:56.058Z,12.43
2019-03-24T14:16:36.535Z,12.53
2019-03-24T14:19:07.929Z,12.65
2019-03-24T14:21:49.112Z,12.52
2019-03-24T14:24:24.331Z,12.22
2019-03-24T14:26:56.622Z,12.33
2019-03-24T14:29:28.980Z,12.34
2019-03-24T14:32:00.447Z,12.20
2019-03-24T14:34:40.104Z,12.29
2019-03-24T14:37:11.853Z,12.11
2019-03-24T14:39:51.548Z,12.23
2019-03-24T14:42:23.992Z,12.23
2019-03-24T14:44:56.806Z,12.21
2019-03-24T14:47:39.746Z,12.27
2019-03-24T14:50:13.368Z,12.50
2019-03-24T14:52:46.323Z,12.35
2019-03-24T14:55:18.560Z,12.35
2019-03-24T14:57:50.305Z,12.40
2019-03-24T15:00:34.592Z,12.50
2019-03-24T15:03:16.520Z,12.43
2019-03-24T15:06:03.196Z,12.30
2019-03-24T15:08:36.060Z,12.04
2019-03-24T15:11:07.625Z,12.16
2019-03-24T15:13:41.157Z,11.96
2019-03-24T15:16:21.511Z,11.97
2019-03-24T15:18:58.325Z,12.01
2019-03-24T15:21:35.751Z,12.01
2019-03-24T15:24:11.519Z,12.22
2019-03-24T15:26:44.938Z,12.28
2019-03-24T15:29:16.277Z,12.24
2019-03-24T15:31:48.719Z,12.16
2019-03-24T15:34:22.434Z,12.25
2019-03-24T15:37:00.722Z,12.29
2019-03-24T15:39:37.933Z,12.35
2019-03-24T15:42:10.998Z,12.13
2019-03-24T15:44:42.275Z,12.09
2019-03-24T15:47:14.455Z,12.02
2019-03-24T15:49:45.721Z,12.17
2019-03-24T15:52:21.938Z,12.14
2019-03-24T15:54:59.014Z,11.90
2019-03-24T15:57:47.647Z,11.97
2019-03-24T16:00:30.829Z,11.79
2019-03-24T16:03:04.319Z,11.74
2019-03-24T16:05:35.636Z,11.80
2019-03-24T16:08:11.331Z,11.95
2019-03-24T16:10:42.643Z,12.05
2019-03-24T16:13:23.032Z,12.05
2019-03-24T16:15:55.611Z,12.22
2019-03-24T16:18:27.181Z,11.99
2019-03-24T16:20:58.827Z,11.99
2019-03-24T16:23:38.186Z,12.09
2019-03-24T16:26:16.526Z,12.14
2019-03-24T16:28:48.103Z,12.14
2019-03-24T16:31:24.518Z,12.27
2019-03-24T16:33:55.926Z,12.25
2019-03-24T16:36:27.276Z,12.22
2019-03-24T16:39:03.501Z,12.26
2019-03-24T16:41:31.674Z,12.16
2019-03-24T16:44:04.536Z,12.07
2019-03-24T16:46:45.352Z,12.09
2019-03-24T16:49:16.552Z,11.99
2019-03-24T16:51:51.509Z,12.10
2019-03-24T16:54:33.563Z,12.04
2019-03-24T16:57:06.640Z,11.98
2019-03-24T16:59:38.054Z,12.06
2019-03-24T17:02:09.384Z,11.98
2019-03-24T17:04:48.623Z,11.89
2019-03-24T17:07:20.050Z,11.93
2019-03-24T17:09:51.367Z,11.87
2019-03-24T17:12:26.559Z,12.27
2019-03-24T17:14:57.831Z,12.35
2019-03-24T17:17:29.060Z,12.21
2019-03-24T17:20:00.509Z,12.06
2019-03-24T17:22:35.188Z,11.92
2019-03-24T17:25:12.794Z,11.80
2019-03-24T17:27:47.642Z,11.73
2019-03-24T17:30:21.796Z,11.60
2019-03-24T17:32:59.466Z,11.57
2019-03-24T17:35:35.659Z,11.56
2019-03-24T17:38:10.493Z,11.46
2019-03-24T17:40:44.967Z,11.37
2019-03-24T17:43:19.912Z,11.46
2019-03-24T17:45:56.795Z,11.48
2019-03-24T17:48:31.818Z,11.34
2019-03-24T17:51:04.564Z,11.16
2019-03-24T17:53:43.241Z,11.08
2019-03-24T17:56:18.014Z,11.08
2019-03-24T17:58:58.085Z,11.14
2019-03-24T18:01:29.425Z,11.06
2019-03-24T18:04:08.452Z,10.94
2019-03-24T18:06:50.965Z,10.83
2019-03-24T18:09:22.303Z,10.81
2019-03-24T18:11:53.726Z,10.73
2019-03-24T18:14:30.951Z,10.81
2019-03-24T18:17:03.352Z,10.71
2019-03-24T18:19:41.753Z,10.78
2019-03-24T18:22:17.274Z,10.67
2019-03-24T18:24:50.626Z,10.62
2019-03-24T18:27:21.917Z,10.48
2019-03-24T18:29:53.254Z,10.51
2019-03-24T18:32:25.531Z,10.52
2019-03-24T18:35:00.452Z,10.24
2019-03-24T18:37:31.930Z,10.31
2019-03-24T18:40:04.637Z,10.42
2019-03-24T18:42:35.897Z,10.26
2019-03-24T18:45:08.583Z,10.18
2019-03-24T18:47:39.832Z,10.06
2019-03-24T18:50:12.474Z,10.11
2019-03-24T18:52:46.708Z,10.14
2019-03-24T18:55:23.942Z,10.13
2019-03-24T18:57:56.907Z,10.09
2019-03-24T19:00:28.078Z,9.94
2019-03-24T19:03:05.497Z,9.88
2019-03-24T19:05:42.201Z,9.80
2019-03-24T19:08:13.605Z,9.80
2019-03-24T19:10:48.181Z,9.68
2019-03-24T19:13:20.027Z,9.60
2019-03-24T19:15:55.574Z,9.66
2019-03-24T19:18:27.235Z,9.62
2019-03-24T19:20:58.993Z,9.49
2019-03-24T19:23:32.858Z,9.63
2019-03-24T19:26:07.801Z,9.56
2019-03-24T19:28:39.121Z,9.57
2019-03-24T19:31:11.344Z,9.45
2019-03-24T19:33:45.715Z,9.49
2019-03-24T19:36:17.174Z,9.37
2019-03-24T19:38:50.520Z,9.33
2019-03-24T19:41:24.004Z,9.41
2019-03-24T19:43:55.793Z,9.49
2019-03-24T19:46:27.150Z,9.46
2019-03-24T19:48:58.969Z,9.34
2019-03-24T19:51:31.828Z,9.24
2019-03-24T19:54:06.465Z,9.16
2019-03-24T19:56:37.906Z,9.22
2019-03-24T19:59:09.442Z,9.26
2019-03-24T20:01:40.940Z,9.19
2019-03-24T20:04:12.425Z,9.13
2019-03-24T20:06:46.962Z,9.03
2019-03-24T20:09:20.244Z,8.94
2019-03-24T20:11:53.756Z,8.87
2019-03-24T20:14:25.443Z,8.77
2019-03-24T20:16:57.364Z,8.85
2019-03-24T20:19:51.737Z,8.80
2019-03-24T20:22:23.468Z,8.88
2019-03-24T20:25:03.095Z,8.71
2019-03-24T20:27:38.863Z,8.70
2019-03-24T20:30:14.406Z,8.43
2019-03-24T20:32:50.092Z,8.45
2019-03-24T20:35:32.888Z,8.34
2019-03-24T20:38:05.454Z,8.37
2019-03-24T20:40:37.551Z,8.22
2019-03-24T20:43:16.813Z,8.20
2019-03-24T20:45:52.475Z,8.20
2019-03-24T20:48:25.571Z,8.07
2019-03-24T20:50:59.008Z,8.16
2019-03-24T20:53:31.299Z,8.13
2019-03-24T20:56:04.848Z,8.22
2019-03-24T20:58:36.541Z,8.10
2019-03-24T21:01:08.402Z,8.09
2019-03-24T21:03:41.410Z,8.07
2019-03-24T21:06:14.341Z,8.08
2019-03-24T21:08:47.028Z,8.14
2019-03-24T21:11:20.473Z,8.21
2019-03-24T21:13:53.602Z,8.26
2019-03-24T21:16:26.438Z,8.24
2019-03-24T21:19:05.094Z,8.22
2019-03-24T21:21:37.430Z,8.17
2019-03-24T21:24:09.529Z,8.15
2019-03-24T21:26:46.719Z,8.14
2019-03-24T21:29:20.851Z,8.12
2019-03-24T21:32:04.398Z,8.14
2019-03-24T21:34:39.299Z,8.08
2019-03-24T21:37:20.595Z,8.01
2019-03-24T21:39:57.417Z,8.16
2019-03-24T21:42:45.506Z,8.09
2019-03-24T21:45:17.425Z,8.09
2019-03-24T21:48:01.363Z,8.15
2019-03-24T21:50:37.860Z,7.82
2019-03-24T21:53:10.309Z,8.01
2019-03-24T21:55:42.616Z,7.90
2019-03-24T21:58:18.410Z,7.88
2019-03-24T22:00:50.630Z,8.07
2019-03-24T22:03:24.514Z,7.92
2019-03-24T22:05:57.059Z,8.05
2019-03-24T22:08:30.757Z,8.03
2019-03-24T22:11:05.060Z,8.02
2019-03-24T22:13:37.284Z,8.14
2019-03-24T22:16:11.980Z,7.89
2019-03-24T22:18:46.646Z,7.92
2019-03-24T22:21:17.997Z,7.84
2019-03-24T22:23:52.609Z,7.97
2019-03-24T22:26:25.961Z,7.95
2019-03-24T22:28:59.210Z,7.93
2019-03-24T22:31:32.647Z,7.98
2019-03-24T22:34:04.779Z,7.96
2019-03-24T22:36:37.312Z,7.85
2019-03-24T22:39:09.107Z,7.78
2019-03-24T22:41:43.848Z,7.65
2019-03-24T22:44:21.408Z,7.69
2019-03-24T22:46:52.567Z,7.59
2019-03-24T22:49:28.205Z,7.48
2019-03-24T22:52:07.182Z,7.41
2019-03-24T22:54:38.674Z,7.34
2019-03-24T22:57:10.155Z,7.43
2019-03-24T22:59:41.424Z,7.46
2019-03-24T23:02:12.887Z,7.46
2019-03-24T23:04:45.394Z,7.40
2019-03-24T23:07:27.589Z,7.45
2019-03-24T23:10:00.314Z,7.46
2019-03-24T23:12:33.267Z,7.36
2019-03-24T23:15:05.073Z,7.35
2019-03-24T23:17:36.879Z,7.33
2019-03-24T23:20:13.486Z,7.18
2019-03-24T23:22:49.454Z,7.15
2019-03-24T23:25:22.688Z,7.12
2019-03-24T23:27:55.898Z,7.10
2019-03-24T23:30:31.800Z,6.98
2019-03-24T23:33:03.165Z,6.90
2019-03-24T23:35:34.420Z,6.94
2019-03-24T23:38:19.740Z,6.84
2019-03-24T23:40:52.169Z,7.07
2019-03-24T23:43:26.503Z,6.87
2019-03-24T23:46:01.127Z,6.66
2019-03-24T23:48:32.411Z,6.59
2019-03-24T23:51:15.318Z,6.63
2019-03-24T23:53:46.581Z,6.67
2019-03-24T23:56:18.773Z,6.78
